UKLU/UDJ METAR and TAF weather

Enter ICAO airport designator
Station Type Date Time Source
UKLU METAR 2019/06/17 05:00 UTC NOAA

UKLU 170500Z 02004MPS 340V060 9999 VCTS SCT040CB SCT040 20/18 Q1016 R10/290160 TEMPO -TSRA SCT015CB


Station Type Date Time Source
UKLU Decoded METAR 2019/06/17 05:00 UTC NOAA

Uzhhorod, Ukraine (UKLU) 48-38-05N 022-15-53E
Jun 17, 2019 - 01:00 AM EDT / 2019.06.17 0500 UTC
Wind: from the NNE (020 degrees) at 9 MPH (8 KT) (direction variable):0
Visibility: greater than 7 mile(s):0
Sky conditions: partly cloudy
Weather: thunder in the vicinity; Cumulonimbus clouds observed
Temperature: 68 F (20 C)
Dew Point: 64 F (18 C)
Relative Humidity: 88%
Pressure (altimeter): 30.00 in. Hg (1016 hPa)
ob: UKLU 170500Z 02004MPS 340V060 9999 VCTS SCT040CB SCT040 20/18 Q1016 R10/290160 TEMPO -TSRA SCT015CB
cycle: 5

Station Type Date Time Source
UKLU TAF 2019/04/25 06:24 UTC NOAA

TAF TAF UKLU 250504Z 2506/2615 12005MPS 9999 NSC
TEMPO 2506/2512 15007G12MPS SCT040

Example: see airport list